CNU4 weather

Belleville Airport
Belleville, Ontario, Canada

Public forecast

Using degrees Celsius for public forecast. Weather courtesy of forecast.io.

METAR (pilot weather report)

Closest report is CFB Trenton, 10.4 nm (19.3 km) WSW. Retrieved 2019/03/21 23:00 UTC (38 minutes ago):

CYTR 212300Z 35002KT 15SM BKN050 OVC080 05/02 A2979 RMK SC6AC2 SLP093

TAF (pilot weather forecast)

Closest forecast is CFB Trenton, 10.4 nm (19.3 km) WSW. Retrieved 2019/03/21 18:31 UTC (5 hours ago):

TAF CYTR 211730Z 2118/2218 VRB03KT P6SM BKN060 OVC090 FM220000 22005KT P6SM OVC030 TEMPO 2200/2206 3SM -SHRA BR OVC010 BECMG 2200/2202 VRB03KT FM220600 29008KT 6SM -SHRASN BR OVC015 FM220900 31008KT 6SM -SHSN BR OVC020 FM221500 32012G22KT P6SM -SHSNRA OVC025 RMK NXT FCST BY 220000Z